sensor_id;sensor_type;location;lat;lon;timestamp;P1;durP1;ratioP1;P2;durP2;ratioP2
12208;SDS011;6167;43.080;25.634;2023-12-22T00:02:03;142.87;;;63.10;;
12208;SDS011;6167;43.080;25.634;2023-12-22T00:04:32;29.80;;;17.07;;
12208;SDS011;6167;43.080;25.634;2023-12-22T00:06:59;24.00;;;16.00;;
12208;SDS011;6167;43.080;25.634;2023-12-22T00:09:26;56.77;;;31.93;;
12208;SDS011;6167;43.080;25.634;2023-12-22T00:11:53;22.30;;;15.43;;
12208;SDS011;6167;43.080;25.634;2023-12-22T00:14:19;63.77;;;33.87;;
12208;SDS011;6167;43.080;25.634;2023-12-22T00:16:46;26.83;;;17.50;;
12208;SDS011;6167;43.080;25.634;2023-12-22T00:19:13;23.67;;;16.83;;
12208;SDS011;6167;43.080;25.634;2023-12-22T00:21:41;24.90;;;15.73;;
12208;SDS011;6167;43.080;25.634;2023-12-22T00:24:08;21.87;;;13.80;;
12208;SDS011;6167;43.080;25.634;2023-12-22T00:26:35;24.63;;;14.67;;
12208;SDS011;6167;43.080;25.634;2023-12-22T00:29:01;18.20;;;12.57;;
12208;SDS011;6167;43.080;25.634;2023-12-22T00:31:28;21.07;;;13.10;;
12208;SDS011;6167;43.080;25.634;2023-12-22T00:33:55;20.53;;;14.30;;
12208;SDS011;6167;43.080;25.634;2023-12-22T00:36:22;22.43;;;16.17;;
12208;SDS011;6167;43.080;25.634;2023-12-22T00:38:51;19.00;;;12.40;;
12208;SDS011;6167;43.080;25.634;2023-12-22T00:41:17;19.53;;;13.50;;
12208;SDS011;6167;43.080;25.634;2023-12-22T00:43:44;20.77;;;13.30;;
12208;SDS011;6167;43.080;25.634;2023-12-22T00:46:11;21.03;;;13.80;;
12208;SDS011;6167;43.080;25.634;2023-12-22T00:48:39;20.63;;;14.63;;
12208;SDS011;6167;43.080;25.634;2023-12-22T00:51:06;19.83;;;13.93;;
12208;SDS011;6167;43.080;25.634;2023-12-22T00:53:33;20.27;;;13.53;;
12208;SDS011;6167;43.080;25.634;2023-12-22T00:56:01;40.90;;;32.20;;
12208;SDS011;6167;43.080;25.634;2023-12-22T00:58:29;27.70;;;20.43;;
12208;SDS011;6167;43.080;25.634;2023-12-22T01:00:56;28.67;;;18.30;;
12208;SDS011;6167;43.080;25.634;2023-12-22T01:03:23;25.93;;;17.23;;
12208;SDS011;6167;43.080;25.634;2023-12-22T01:05:49;20.53;;;15.63;;
12208;SDS011;6167;43.080;25.634;2023-12-22T01:08:16;21.43;;;14.17;;
12208;SDS011;6167;43.080;25.634;2023-12-22T01:10:43;29.30;;;17.53;;
12208;SDS011;6167;43.080;25.634;2023-12-22T01:13:11;21.53;;;16.60;;
12208;SDS011;6167;43.080;25.634;2023-12-22T01:15:38;16.13;;;12.00;;
12208;SDS011;6167;43.080;25.634;2023-12-22T01:18:05;16.73;;;13.90;;
12208;SDS011;6167;43.080;25.634;2023-12-22T01:20:31;15.33;;;11.50;;
12208;SDS011;6167;43.080;25.634;2023-12-22T01:22:58;19.10;;;12.33;;
12208;SDS011;6167;43.080;25.634;2023-12-22T01:25:25;21.80;;;12.90;;
12208;SDS011;6167;43.080;25.634;2023-12-22T01:27:52;20.40;;;13.23;;
12208;SDS011;6167;43.080;25.634;2023-12-22T01:30:20;14.50;;;11.63;;
12208;SDS011;6167;43.080;25.634;2023-12-22T01:32:47;139.03;;;87.47;;
12208;SDS011;6167;43.080;25.634;2023-12-22T01:35:13;20.43;;;14.27;;
12208;SDS011;6167;43.080;25.634;2023-12-22T01:37:40;15.10;;;11.07;;
12208;SDS011;6167;43.080;25.634;2023-12-22T01:40:07;17.07;;;10.87;;
12208;SDS011;6167;43.080;25.634;2023-12-22T01:42:35;16.83;;;9.97;;
12208;SDS011;6167;43.080;25.634;2023-12-22T01:45:02;14.47;;;11.23;;
12208;SDS011;6167;43.080;25.634;2023-12-22T01:47:29;14.73;;;10.57;;
12208;SDS011;6167;43.080;25.634;2023-12-22T01:49:56;15.63;;;10.50;;
12208;SDS011;6167;43.080;25.634;2023-12-22T01:52:24;17.90;;;11.83;;
12208;SDS011;6167;43.080;25.634;2023-12-22T01:54:52;16.03;;;11.40;;
12208;SDS011;6167;43.080;25.634;2023-12-22T01:57:20;15.40;;;10.70;;
12208;SDS011;6167;43.080;25.634;2023-12-22T01:59:47;14.30;;;10.67;;
12208;SDS011;6167;43.080;25.634;2023-12-22T02:02:15;17.47;;;11.03;;
12208;SDS011;6167;43.080;25.634;2023-12-22T02:04:44;17.37;;;10.47;;
12208;SDS011;6167;43.080;25.634;2023-12-22T02:07:12;15.97;;;11.70;;
12208;SDS011;6167;43.080;25.634;2023-12-22T02:09:38;16.03;;;10.93;;
12208;SDS011;6167;43.080;25.634;2023-12-22T02:12:05;18.17;;;11.47;;
12208;SDS011;6167;43.080;25.634;2023-12-22T02:14:32;15.13;;;11.40;;
12208;SDS011;6167;43.080;25.634;2023-12-22T02:17:02;16.07;;;11.17;;
12208;SDS011;6167;43.080;25.634;2023-12-22T02:19:39;19.47;;;10.53;;
12208;SDS011;6167;43.080;25.634;2023-12-22T02:22:10;17.37;;;10.67;;
12208;SDS011;6167;43.080;25.634;2023-12-22T02:24:39;17.77;;;11.67;;
12208;SDS011;6167;43.080;25.634;2023-12-22T02:27:09;16.17;;;11.13;;
12208;SDS011;6167;43.080;25.634;2023-12-22T02:29:42;16.33;;;11.23;;
12208;SDS011;6167;43.080;25.634;2023-12-22T02:32:13;17.03;;;11.57;;
12208;SDS011;6167;43.080;25.634;2023-12-22T02:34:47;17.13;;;11.07;;
12208;SDS011;6167;43.080;25.634;2023-12-22T02:37:16;14.97;;;10.70;;
12208;SDS011;6167;43.080;25.634;2023-12-22T02:39:46;13.47;;;10.20;;
12208;SDS011;6167;43.080;25.634;2023-12-22T02:42:14;15.63;;;10.50;;
12208;SDS011;6167;43.080;25.634;2023-12-22T02:44:41;14.30;;;10.30;;
12208;SDS011;6167;43.080;25.634;2023-12-22T02:47:08;13.67;;;8.80;;
12208;SDS011;6167;43.080;25.634;2023-12-22T02:49:35;14.40;;;9.53;;
12208;SDS011;6167;43.080;25.634;2023-12-22T02:52:02;13.17;;;9.50;;
12208;SDS011;6167;43.080;25.634;2023-12-22T02:54:29;12.63;;;9.23;;
12208;SDS011;6167;43.080;25.634;2023-12-22T02:56:59;13.10;;;9.33;;
12208;SDS011;6167;43.080;25.634;2023-12-22T02:59:26;13.03;;;9.07;;
12208;SDS011;6167;43.080;25.634;2023-12-22T03:01:53;12.03;;;9.83;;
12208;SDS011;6167;43.080;25.634;2023-12-22T03:04:20;13.17;;;9.57;;
12208;SDS011;6167;43.080;25.634;2023-12-22T03:06:47;12.10;;;8.70;;
12208;SDS011;6167;43.080;25.634;2023-12-22T03:09:14;13.23;;;7.73;;
12208;SDS011;6167;43.080;25.634;2023-12-22T03:11:40;13.10;;;8.50;;
12208;SDS011;6167;43.080;25.634;2023-12-22T03:14:09;11.13;;;8.27;;
12208;SDS011;6167;43.080;25.634;2023-12-22T03:16:36;12.13;;;8.77;;
12208;SDS011;6167;43.080;25.634;2023-12-22T03:19:03;12.80;;;9.17;;
12208;SDS011;6167;43.080;25.634;2023-12-22T03:21:29;13.67;;;8.87;;
12208;SDS011;6167;43.080;25.634;2023-12-22T03:23:56;13.13;;;9.53;;
12208;SDS011;6167;43.080;25.634;2023-12-22T03:26:23;13.30;;;8.90;;
12208;SDS011;6167;43.080;25.634;2023-12-22T03:28:52;10.30;;;8.10;;
12208;SDS011;6167;43.080;25.634;2023-12-22T03:31:20;12.60;;;8.83;;
12208;SDS011;6167;43.080;25.634;2023-12-22T03:33:47;14.20;;;9.30;;
12208;SDS011;6167;43.080;25.634;2023-12-22T03:36:14;16.23;;;9.60;;
12208;SDS011;6167;43.080;25.634;2023-12-22T03:38:40;15.07;;;9.77;;
12208;SDS011;6167;43.080;25.634;2023-12-22T03:41:07;15.87;;;9.63;;
12208;SDS011;6167;43.080;25.634;2023-12-22T03:43:34;12.80;;;9.27;;
12208;SDS011;6167;43.080;25.634;2023-12-22T03:46:01;13.60;;;9.77;;
12208;SDS011;6167;43.080;25.634;2023-12-22T03:48:29;12.97;;;9.23;;
12208;SDS011;6167;43.080;25.634;2023-12-22T03:50:56;17.03;;;11.93;;
12208;SDS011;6167;43.080;25.634;2023-12-22T03:53:23;15.77;;;11.80;;
12208;SDS011;6167;43.080;25.634;2023-12-22T03:55:49;14.47;;;10.63;;
12208;SDS011;6167;43.080;25.634;2023-12-22T03:58:16;13.60;;;10.83;;
12208;SDS011;6167;43.080;25.634;2023-12-22T04:00:43;15.27;;;10.50;;
12208;SDS011;6167;43.080;25.634;2023-12-22T04:03:10;15.27;;;10.60;;
12208;SDS011;6167;43.080;25.634;2023-12-22T04:05:38;15.73;;;10.70;;
12208;SDS011;6167;43.080;25.634;2023-12-22T04:08:05;15.40;;;11.23;;
12208;SDS011;6167;43.080;25.634;2023-12-22T04:10:32;14.97;;;10.77;;
12208;SDS011;6167;43.080;25.634;2023-12-22T04:12:59;16.47;;;11.10;;
12208;SDS011;6167;43.080;25.634;2023-12-22T04:15:25;13.33;;;9.97;;
12208;SDS011;6167;43.080;25.634;2023-12-22T04:17:52;16.77;;;11.53;;
12208;SDS011;6167;43.080;25.634;2023-12-22T04:20:19;16.80;;;11.00;;
12208;SDS011;6167;43.080;25.634;2023-12-22T04:22:47;17.53;;;11.83;;
12208;SDS011;6167;43.080;25.634;2023-12-22T04:25:14;20.10;;;13.17;;
12208;SDS011;6167;43.080;25.634;2023-12-22T04:27:41;18.13;;;12.20;;
12208;SDS011;6167;43.080;25.634;2023-12-22T04:30:08;17.23;;;12.47;;
12208;SDS011;6167;43.080;25.634;2023-12-22T04:32:36;19.53;;;11.90;;
12208;SDS011;6167;43.080;25.634;2023-12-22T04:35:03;18.77;;;12.63;;
12208;SDS011;6167;43.080;25.634;2023-12-22T04:37:30;21.37;;;13.43;;
12208;SDS011;6167;43.080;25.634;2023-12-22T04:39:59;24.80;;;15.40;;
12208;SDS011;6167;43.080;25.634;2023-12-22T04:42:26;27.33;;;17.70;;
12208;SDS011;6167;43.080;25.634;2023-12-22T04:44:53;33.17;;;18.63;;
12208;SDS011;6167;43.080;25.634;2023-12-22T04:47:20;30.50;;;18.10;;
12208;SDS011;6167;43.080;25.634;2023-12-22T04:49:47;27.07;;;17.33;;
12208;SDS011;6167;43.080;25.634;2023-12-22T04:52:14;29.63;;;18.20;;
12208;SDS011;6167;43.080;25.634;2023-12-22T04:54:41;31.27;;;17.87;;
12208;SDS011;6167;43.080;25.634;2023-12-22T04:57:09;34.23;;;19.67;;
12208;SDS011;6167;43.080;25.634;2023-12-22T04:59:35;30.37;;;19.33;;
12208;SDS011;6167;43.080;25.634;2023-12-22T05:02:02;30.70;;;19.90;;
12208;SDS011;6167;43.080;25.634;2023-12-22T05:04:29;32.63;;;19.37;;
12208;SDS011;6167;43.080;25.634;2023-12-22T05:06:56;33.73;;;19.90;;
12208;SDS011;6167;43.080;25.634;2023-12-22T05:09:23;32.53;;;18.60;;
12208;SDS011;6167;43.080;25.634;2023-12-22T05:11:50;32.03;;;19.50;;
12208;SDS011;6167;43.080;25.634;2023-12-22T05:14:19;32.10;;;19.47;;
12208;SDS011;6167;43.080;25.634;2023-12-22T05:16:46;32.07;;;18.83;;
12208;SDS011;6167;43.080;25.634;2023-12-22T05:19:13;29.67;;;19.73;;
12208;SDS011;6167;43.080;25.634;2023-12-22T05:21:40;30.57;;;19.23;;
12208;SDS011;6167;43.080;25.634;2023-12-22T05:24:08;31.27;;;19.20;;
12208;SDS011;6167;43.080;25.634;2023-12-22T05:26:35;32.57;;;19.27;;
12208;SDS011;6167;43.080;25.634;2023-12-22T05:29:01;32.17;;;18.50;;
12208;SDS011;6167;43.080;25.634;2023-12-22T05:31:30;33.37;;;19.00;;
12208;SDS011;6167;43.080;25.634;2023-12-22T05:33:58;34.33;;;18.70;;
12208;SDS011;6167;43.080;25.634;2023-12-22T05:36:24;38.20;;;19.57;;
12208;SDS011;6167;43.080;25.634;2023-12-22T05:38:51;30.97;;;18.43;;
12208;SDS011;6167;43.080;25.634;2023-12-22T05:41:18;36.17;;;20.87;;
12208;SDS011;6167;43.080;25.634;2023-12-22T05:43:45;36.70;;;22.83;;
12208;SDS011;6167;43.080;25.634;2023-12-22T05:46:11;36.47;;;22.20;;
12208;SDS011;6167;43.080;25.634;2023-12-22T05:48:40;41.77;;;23.90;;
12208;SDS011;6167;43.080;25.634;2023-12-22T05:51:06;43.17;;;25.70;;
12208;SDS011;6167;43.080;25.634;2023-12-22T05:53:38;47.97;;;27.10;;
12208;SDS011;6167;43.080;25.634;2023-12-22T05:56:05;50.93;;;27.10;;
12208;SDS011;6167;43.080;25.634;2023-12-22T05:58:43;42.33;;;25.27;;
12208;SDS011;6167;43.080;25.634;2023-12-22T06:01:13;37.70;;;22.90;;
12208;SDS011;6167;43.080;25.634;2023-12-22T06:03:43;37.87;;;21.70;;
12208;SDS011;6167;43.080;25.634;2023-12-22T06:06:10;37.17;;;21.87;;
12208;SDS011;6167;43.080;25.634;2023-12-22T06:08:38;34.30;;;21.73;;
12208;SDS011;6167;43.080;25.634;2023-12-22T06:11:05;36.43;;;22.00;;
12208;SDS011;6167;43.080;25.634;2023-12-22T06:13:31;31.37;;;20.40;;
12208;SDS011;6167;43.080;25.634;2023-12-22T06:15:58;36.63;;;21.27;;
12208;SDS011;6167;43.080;25.634;2023-12-22T06:18:25;33.67;;;21.00;;
12208;SDS011;6167;43.080;25.634;2023-12-22T06:20:54;40.93;;;21.60;;
12208;SDS011;6167;43.080;25.634;2023-12-22T06:23:20;34.33;;;21.63;;
12208;SDS011;6167;43.080;25.634;2023-12-22T06:25:47;37.23;;;21.73;;
12208;SDS011;6167;43.080;25.634;2023-12-22T06:28:14;33.83;;;20.33;;
12208;SDS011;6167;43.080;25.634;2023-12-22T06:30:42;37.43;;;23.17;;
12208;SDS011;6167;43.080;25.634;2023-12-22T06:33:10;33.93;;;22.27;;
12208;SDS011;6167;43.080;25.634;2023-12-22T06:35:37;32.00;;;21.37;;
12208;SDS011;6167;43.080;25.634;2023-12-22T06:38:07;38.60;;;22.67;;
12208;SDS011;6167;43.080;25.634;2023-12-22T06:40:36;35.37;;;21.97;;
12208;SDS011;6167;43.080;25.634;2023-12-22T06:43:03;40.37;;;23.90;;
12208;SDS011;6167;43.080;25.634;2023-12-22T06:45:30;37.73;;;20.63;;
12208;SDS011;6167;43.080;25.634;2023-12-22T06:47:57;32.73;;;20.50;;
12208;SDS011;6167;43.080;25.634;2023-12-22T06:50:24;30.63;;;21.17;;
12208;SDS011;6167;43.080;25.634;2023-12-22T06:52:51;35.47;;;22.47;;
12208;SDS011;6167;43.080;25.634;2023-12-22T06:55:19;37.97;;;21.67;;
12208;SDS011;6167;43.080;25.634;2023-12-22T06:57:46;36.10;;;22.00;;
12208;SDS011;6167;43.080;25.634;2023-12-22T07:00:13;38.60;;;22.77;;
12208;SDS011;6167;43.080;25.634;2023-12-22T07:02:40;34.90;;;21.67;;
12208;SDS011;6167;43.080;25.634;2023-12-22T07:07:56;33.20;;;22.60;;
12208;SDS011;6167;43.080;25.634;2023-12-22T07:10:24;32.87;;;21.93;;
12208;SDS011;6167;43.080;25.634;2023-12-22T07:12:51;41.30;;;23.83;;
12208;SDS011;6167;43.080;25.634;2023-12-22T07:15:17;34.57;;;22.60;;
12208;SDS011;6167;43.080;25.634;2023-12-22T07:17:44;34.90;;;23.07;;
12208;SDS011;6167;43.080;25.634;2023-12-22T07:20:11;35.70;;;23.17;;
12208;SDS011;6167;43.080;25.634;2023-12-22T07:22:38;39.60;;;25.57;;
12208;SDS011;6167;43.080;25.634;2023-12-22T07:25:05;38.60;;;26.87;;
12208;SDS011;6167;43.080;25.634;2023-12-22T07:27:34;40.30;;;25.30;;
12208;SDS011;6167;43.080;25.634;2023-12-22T07:30:01;35.33;;;23.87;;
12208;SDS011;6167;43.080;25.634;2023-12-22T07:32:28;39.50;;;26.23;;
12208;SDS011;6167;43.080;25.634;2023-12-22T07:34:55;37.93;;;25.37;;
12208;SDS011;6167;43.080;25.634;2023-12-22T07:37:22;45.00;;;26.77;;
12208;SDS011;6167;43.080;25.634;2023-12-22T07:39:49;39.20;;;28.33;;
12208;SDS011;6167;43.080;25.634;2023-12-22T07:42:15;45.40;;;28.07;;
12208;SDS011;6167;43.080;25.634;2023-12-22T07:44:44;41.03;;;26.77;;
12208;SDS011;6167;43.080;25.634;2023-12-22T07:47:10;44.07;;;29.23;;
12208;SDS011;6167;43.080;25.634;2023-12-22T07:49:37;42.63;;;28.30;;
12208;SDS011;6167;43.080;25.634;2023-12-22T07:52:05;49.40;;;32.30;;
12208;SDS011;6167;43.080;25.634;2023-12-22T07:54:32;46.40;;;31.23;;
12208;SDS011;6167;43.080;25.634;2023-12-22T07:56:59;43.50;;;30.93;;
12208;SDS011;6167;43.080;25.634;2023-12-22T07:59:25;46.97;;;31.90;;
12208;SDS011;6167;43.080;25.634;2023-12-22T08:01:54;50.87;;;32.10;;
12208;SDS011;6167;43.080;25.634;2023-12-22T08:04:20;44.20;;;29.97;;
12208;SDS011;6167;43.080;25.634;2023-12-22T08:06:47;43.23;;;30.33;;
12208;SDS011;6167;43.080;25.634;2023-12-22T08:09:14;54.27;;;31.77;;
12208;SDS011;6167;43.080;25.634;2023-12-22T08:11:41;63.07;;;38.33;;
12208;SDS011;6167;43.080;25.634;2023-12-22T08:14:07;47.00;;;31.37;;
12208;SDS011;6167;43.080;25.634;2023-12-22T08:16:34;64.53;;;46.43;;
12208;SDS011;6167;43.080;25.634;2023-12-22T08:19:02;98.37;;;56.83;;
12208;SDS011;6167;43.080;25.634;2023-12-22T08:21:29;103.30;;;61.53;;
12208;SDS011;6167;43.080;25.634;2023-12-22T08:23:56;48.47;;;31.93;;
12208;SDS011;6167;43.080;25.634;2023-12-22T08:26:23;53.63;;;33.07;;
12208;SDS011;6167;43.080;25.634;2023-12-22T08:28:49;40.47;;;27.83;;
12208;SDS011;6167;43.080;25.634;2023-12-22T08:31:16;42.13;;;28.20;;
12208;SDS011;6167;43.080;25.634;2023-12-22T08:33:43;45.60;;;31.03;;
12208;SDS011;6167;43.080;25.634;2023-12-22T08:36:11;52.87;;;32.37;;
12208;SDS011;6167;43.080;25.634;2023-12-22T08:38:38;54.30;;;32.60;;
12208;SDS011;6167;43.080;25.634;2023-12-22T08:41:06;51.37;;;33.53;;
12208;SDS011;6167;43.080;25.634;2023-12-22T08:43:33;49.30;;;32.27;;
12208;SDS011;6167;43.080;25.634;2023-12-22T08:46:00;42.80;;;29.30;;
12208;SDS011;6167;43.080;25.634;2023-12-22T08:48:27;42.33;;;28.07;;
12208;SDS011;6167;43.080;25.634;2023-12-22T08:50:54;53.10;;;33.97;;
12208;SDS011;6167;43.080;25.634;2023-12-22T08:53:22;88.70;;;46.97;;
12208;SDS011;6167;43.080;25.634;2023-12-22T08:55:49;57.37;;;36.33;;
12208;SDS011;6167;43.080;25.634;2023-12-22T08:58:15;48.40;;;31.90;;
12208;SDS011;6167;43.080;25.634;2023-12-22T09:00:42;44.27;;;32.93;;
12208;SDS011;6167;43.080;25.634;2023-12-22T09:03:09;46.87;;;31.50;;
12208;SDS011;6167;43.080;25.634;2023-12-22T09:05:37;45.50;;;32.90;;
12208;SDS011;6167;43.080;25.634;2023-12-22T09:08:04;45.77;;;32.80;;
12208;SDS011;6167;43.080;25.634;2023-12-22T09:10:33;43.30;;;31.53;;
12208;SDS011;6167;43.080;25.634;2023-12-22T09:13:00;49.60;;;32.73;;
12208;SDS011;6167;43.080;25.634;2023-12-22T09:15:27;51.07;;;34.30;;
12208;SDS011;6167;43.080;25.634;2023-12-22T09:17:54;53.33;;;34.27;;
12208;SDS011;6167;43.080;25.634;2023-12-22T09:20:21;50.53;;;35.10;;
12208;SDS011;6167;43.080;25.634;2023-12-22T09:22:48;54.67;;;40.53;;
12208;SDS011;6167;43.080;25.634;2023-12-22T09:25:15;50.53;;;34.63;;
12208;SDS011;6167;43.080;25.634;2023-12-22T09:27:43;45.93;;;33.93;;
12208;SDS011;6167;43.080;25.634;2023-12-22T09:30:10;46.50;;;33.77;;
12208;SDS011;6167;43.080;25.634;2023-12-22T09:32:37;135.47;;;63.40;;
12208;SDS011;6167;43.080;25.634;2023-12-22T09:35:04;68.77;;;43.00;;
12208;SDS011;6167;43.080;25.634;2023-12-22T09:37:31;62.93;;;39.90;;
12208;SDS011;6167;43.080;25.634;2023-12-22T09:39:58;57.13;;;39.40;;
12208;SDS011;6167;43.080;25.634;2023-12-22T09:42:25;50.50;;;36.33;;
12208;SDS011;6167;43.080;25.634;2023-12-22T09:44:54;44.03;;;28.87;;
12208;SDS011;6167;43.080;25.634;2023-12-22T09:47:24;46.43;;;32.70;;
12208;SDS011;6167;43.080;25.634;2023-12-22T09:49:55;52.70;;;36.50;;
12208;SDS011;6167;43.080;25.634;2023-12-22T09:52:23;77.80;;;47.20;;
12208;SDS011;6167;43.080;25.634;2023-12-22T09:54:50;61.73;;;37.73;;
12208;SDS011;6167;43.080;25.634;2023-12-22T09:57:20;61.80;;;38.10;;
12208;SDS011;6167;43.080;25.634;2023-12-22T09:59:50;58.03;;;37.27;;
12208;SDS011;6167;43.080;25.634;2023-12-22T10:02:19;57.03;;;37.60;;
12208;SDS011;6167;43.080;25.634;2023-12-22T10:04:46;46.93;;;33.50;;
12208;SDS011;6167;43.080;25.634;2023-12-22T10:07:13;46.90;;;34.70;;
12208;SDS011;6167;43.080;25.634;2023-12-22T10:09:40;50.57;;;37.53;;
12208;SDS011;6167;43.080;25.634;2023-12-22T10:12:08;129.90;;;83.83;;
12208;SDS011;6167;43.080;25.634;2023-12-22T10:14:37;331.17;;;165.03;;
12208;SDS011;6167;43.080;25.634;2023-12-22T10:17:05;357.17;;;157.70;;
12208;SDS011;6167;43.080;25.634;2023-12-22T10:19:33;284.17;;;141.57;;
12208;SDS011;6167;43.080;25.634;2023-12-22T10:22:00;237.20;;;117.93;;
12208;SDS011;6167;43.080;25.634;2023-12-22T10:24:36;44.23;;;28.90;;
12208;SDS011;6167;43.080;25.634;2023-12-22T10:27:04;49.50;;;32.00;;
12208;SDS011;6167;43.080;25.634;2023-12-22T10:29:30;54.57;;;35.77;;
12208;SDS011;6167;43.080;25.634;2023-12-22T10:31:58;23.70;;;14.90;;
12208;SDS011;6167;43.080;25.634;2023-12-22T10:34:26;27.90;;;18.33;;
12208;SDS011;6167;43.080;25.634;2023-12-22T10:36:54;38.70;;;24.73;;
12208;SDS011;6167;43.080;25.634;2023-12-22T10:39:21;13.00;;;10.63;;
12208;SDS011;6167;43.080;25.634;2023-12-22T10:41:48;22.00;;;16.83;;
12208;SDS011;6167;43.080;25.634;2023-12-22T10:44:15;24.00;;;18.30;;
12208;SDS011;6167;43.080;25.634;2023-12-22T10:46:44;25.80;;;16.80;;
12208;SDS011;6167;43.080;25.634;2023-12-22T10:49:13;22.63;;;15.87;;
12208;SDS011;6167;43.080;25.634;2023-12-22T10:51:41;11.43;;;9.97;;
12208;SDS011;6167;43.080;25.634;2023-12-22T10:54:09;5.93;;;4.67;;
12208;SDS011;6167;43.080;25.634;2023-12-22T10:56:36;12.87;;;9.17;;
12208;SDS011;6167;43.080;25.634;2023-12-22T10:59:03;29.27;;;22.37;;
12208;SDS011;6167;43.080;25.634;2023-12-22T11:01:30;7.10;;;6.33;;
12208;SDS011;6167;43.080;25.634;2023-12-22T11:04:01;54.03;;;38.47;;
12208;SDS011;6167;43.080;25.634;2023-12-22T11:06:29;8.57;;;6.37;;
12208;SDS011;6167;43.080;25.634;2023-12-22T11:08:56;5.73;;;4.63;;
12208;SDS011;6167;43.080;25.634;2023-12-22T11:11:27;7.03;;;4.93;;
12208;SDS011;6167;43.080;25.634;2023-12-22T11:13:59;4.27;;;3.83;;
12208;SDS011;6167;43.080;25.634;2023-12-22T11:16:27;3.67;;;2.53;;
12208;SDS011;6167;43.080;25.634;2023-12-22T11:18:55;6.10;;;5.43;;
12208;SDS011;6167;43.080;25.634;2023-12-22T11:21:22;16.73;;;11.93;;
12208;SDS011;6167;43.080;25.634;2023-12-22T11:23:51;8.63;;;5.97;;
12208;SDS011;6167;43.080;25.634;2023-12-22T11:26:18;13.83;;;12.40;;
12208;SDS011;6167;43.080;25.634;2023-12-22T11:28:48;6.77;;;6.07;;
12208;SDS011;6167;43.080;25.634;2023-12-22T11:31:16;4.90;;;4.40;;
12208;SDS011;6167;43.080;25.634;2023-12-22T11:33:44;10.80;;;9.73;;
12208;SDS011;6167;43.080;25.634;2023-12-22T11:36:12;15.83;;;14.30;;
12208;SDS011;6167;43.080;25.634;2023-12-22T11:38:39;5.37;;;4.30;;
12208;SDS011;6167;43.080;25.634;2023-12-22T11:41:06;8.43;;;7.73;;
12208;SDS011;6167;43.080;25.634;2023-12-22T11:43:36;5.67;;;2.80;;
12208;SDS011;6167;43.080;25.634;2023-12-22T11:46:05;6.10;;;5.07;;
12208;SDS011;6167;43.080;25.634;2023-12-22T11:48:32;10.70;;;9.63;;
12208;SDS011;6167;43.080;25.634;2023-12-22T11:50:59;31.60;;;24.70;;
12208;SDS011;6167;43.080;25.634;2023-12-22T11:53:29;6.53;;;5.20;;
12208;SDS011;6167;43.080;25.634;2023-12-22T11:56:01;2.40;;;2.20;;
12208;SDS011;6167;43.080;25.634;2023-12-22T11:58:33;3.70;;;3.33;;
12208;SDS011;6167;43.080;25.634;2023-12-22T12:01:01;5.30;;;3.23;;
12208;SDS011;6167;43.080;25.634;2023-12-22T12:03:31;2.50;;;2.30;;
12208;SDS011;6167;43.080;25.634;2023-12-22T12:06:11;3.20;;;2.10;;
12208;SDS011;6167;43.080;25.634;2023-12-22T12:08:41;6.30;;;3.07;;
12208;SDS011;6167;43.080;25.634;2023-12-22T12:11:08;3.40;;;1.80;;
12208;SDS011;6167;43.080;25.634;2023-12-22T12:13:35;3.33;;;1.83;;
12208;SDS011;6167;43.080;25.634;2023-12-22T12:16:08;3.13;;;2.40;;
12208;SDS011;6167;43.080;25.634;2023-12-22T12:18:36;2.07;;;1.70;;
12208;SDS011;6167;43.080;25.634;2023-12-22T12:21:06;2.97;;;2.10;;
12208;SDS011;6167;43.080;25.634;2023-12-22T12:23:34;1.53;;;1.30;;
12208;SDS011;6167;43.080;25.634;2023-12-22T12:26:01;2.20;;;1.90;;
12208;SDS011;6167;43.080;25.634;2023-12-22T12:28:29;2.53;;;1.73;;
12208;SDS011;6167;43.080;25.634;2023-12-22T12:30:58;1.70;;;1.60;;
12208;SDS011;6167;43.080;25.634;2023-12-22T12:33:27;3.20;;;2.80;;
12208;SDS011;6167;43.080;25.634;2023-12-22T12:35:56;5.63;;;2.83;;
12208;SDS011;6167;43.080;25.634;2023-12-22T12:38:28;6.50;;;4.60;;
12208;SDS011;6167;43.080;25.634;2023-12-22T12:41:06;9.83;;;4.33;;
12208;SDS011;6167;43.080;25.634;2023-12-22T12:43:36;7.07;;;3.60;;
12208;SDS011;6167;43.080;25.634;2023-12-22T12:46:08;3.60;;;2.30;;
12208;SDS011;6167;43.080;25.634;2023-12-22T12:48:35;3.87;;;3.47;;
12208;SDS011;6167;43.080;25.634;2023-12-22T12:51:05;2.97;;;2.07;;
12208;SDS011;6167;43.080;25.634;2023-12-22T12:53:33;2.97;;;1.90;;
12208;SDS011;6167;43.080;25.634;2023-12-22T12:56:03;4.97;;;2.97;;
12208;SDS011;6167;43.080;25.634;2023-12-22T12:58:31;2.63;;;1.80;;
12208;SDS011;6167;43.080;25.634;2023-12-22T13:01:06;3.50;;;1.60;;
12208;SDS011;6167;43.080;25.634;2023-12-22T13:03:33;3.77;;;3.13;;
12208;SDS011;6167;43.080;25.634;2023-12-22T13:06:19;5.97;;;2.30;;
12208;SDS011;6167;43.080;25.634;2023-12-22T13:08:47;3.13;;;2.17;;
12208;SDS011;6167;43.080;25.634;2023-12-22T13:11:15;4.50;;;2.00;;
12208;SDS011;6167;43.080;25.634;2023-12-22T13:13:42;2.70;;;1.77;;
12208;SDS011;6167;43.080;25.634;2023-12-22T13:16:09;3.47;;;2.73;;
12208;SDS011;6167;43.080;25.634;2023-12-22T13:18:36;4.83;;;2.93;;
12208;SDS011;6167;43.080;25.634;2023-12-22T13:21:03;11.07;;;7.23;;
12208;SDS011;6167;43.080;25.634;2023-12-22T13:23:32;8.87;;;5.73;;
12208;SDS011;6167;43.080;25.634;2023-12-22T13:25:59;8.83;;;3.10;;
12208;SDS011;6167;43.080;25.634;2023-12-22T13:28:26;4.93;;;2.50;;
12208;SDS011;6167;43.080;25.634;2023-12-22T13:30:53;1.93;;;1.50;;
12208;SDS011;6167;43.080;25.634;2023-12-22T13:33:20;2.43;;;2.00;;
12208;SDS011;6167;43.080;25.634;2023-12-22T13:35:47;3.47;;;1.80;;
12208;SDS011;6167;43.080;25.634;2023-12-22T13:38:15;3.57;;;2.07;;
12208;SDS011;6167;43.080;25.634;2023-12-22T13:40:45;3.13;;;2.10;;
12208;SDS011;6167;43.080;25.634;2023-12-22T13:43:12;2.70;;;1.70;;
12208;SDS011;6167;43.080;25.634;2023-12-22T13:45:39;2.63;;;2.10;;
12208;SDS011;6167;43.080;25.634;2023-12-22T13:48:06;23.87;;;17.37;;
12208;SDS011;6167;43.080;25.634;2023-12-22T13:50:33;13.00;;;11.70;;
12208;SDS011;6167;43.080;25.634;2023-12-22T13:53:07;3.27;;;2.70;;
12208;SDS011;6167;43.080;25.634;2023-12-22T13:55:34;8.67;;;7.77;;
12208;SDS011;6167;43.080;25.634;2023-12-22T13:58:04;13.90;;;9.80;;
12208;SDS011;6167;43.080;25.634;2023-12-22T14:00:31;3.43;;;2.50;;
12208;SDS011;6167;43.080;25.634;2023-12-22T14:02:58;6.67;;;4.23;;
12208;SDS011;6167;43.080;25.634;2023-12-22T14:05:25;22.27;;;18.50;;
12208;SDS011;6167;43.080;25.634;2023-12-22T14:07:53;6.10;;;4.13;;
12208;SDS011;6167;43.080;25.634;2023-12-22T14:10:20;5.20;;;4.00;;
12208;SDS011;6167;43.080;25.634;2023-12-22T14:12:47;29.87;;;25.03;;
12208;SDS011;6167;43.080;25.634;2023-12-22T14:15:15;9.27;;;7.43;;
12208;SDS011;6167;43.080;25.634;2023-12-22T14:17:42;4.17;;;2.97;;
12208;SDS011;6167;43.080;25.634;2023-12-22T14:20:09;4.67;;;3.73;;
12208;SDS011;6167;43.080;25.634;2023-12-22T14:22:36;3.83;;;3.17;;
12208;SDS011;6167;43.080;25.634;2023-12-22T14:25:03;4.77;;;3.70;;
12208;SDS011;6167;43.080;25.634;2023-12-22T14:27:31;5.70;;;5.03;;
12208;SDS011;6167;43.080;25.634;2023-12-22T14:29:57;8.73;;;5.90;;
12208;SDS011;6167;43.080;25.634;2023-12-22T14:32:26;7.77;;;4.60;;
12208;SDS011;6167;43.080;25.634;2023-12-22T14:34:54;9.70;;;6.20;;